Time;durP1;ratioP1;P1;durP2;ratioP2;P2;SDS_P1;SDS_P2;PMS_P1;PMS_P2;Temp;Humidity;BMP_temperature;BMP_pressure;BME280_temperature;BME280_humidity;BME280_pressure;Samples;Min_cycle;Max_cycle;Signal;HPM_P1;HPM_P2
2023/06/16 00:01:53;;;;;;;;;;;;;;;23.40;45.30;101077.13;4986347;28;4405;-70
2023/06/16 00:04:21;;;;;;;;;;;;;;;23.40;44.90;101082.91;4984494;28;4132;-71
2023/06/16 00:06:48;;;;;;;;;;;;;;;23.40;45.20;101082.19;4985731;28;4236;-69
2023/06/16 00:09:14;;;;;;;;;;;;;;;23.39;44.94;101075.66;4985092;28;4062;-70
2023/06/16 00:11:40;;;;;;;;;;;;;;;23.39;45.22;101072.78;4987840;28;4171;-69
2023/06/16 00:14:07;;;;;;;;;;;;;;;23.39;45.35;101069.88;4987412;28;4145;-70
2023/06/16 00:16:36;;;;;;;;;;;;;;;23.39;44.96;101072.03;5000912;28;4205;-69
2023/06/16 00:19:02;;;;;;;;;;;;;;;23.38;45.30;101071.28;4987052;28;4122;-70
2023/06/16 00:21:38;;;;;;;;;;;;;;;23.38;45.36;101065.50;4986140;28;3952;-70
2023/06/16 00:24:06;;;;;;;;;;;;;;;23.37;45.01;101064.03;4987606;28;4076;-70
2023/06/16 00:26:32;;;;;;;;;;;;;;;23.38;45.31;101053.94;4983553;28;4137;-70
2023/06/16 00:28:58;;;;;;;;;;;;;;;23.37;45.11;101055.34;4983390;28;4133;-70
2023/06/16 00:31:25;;;;;;;;;;;;;;;23.37;44.94;101054.63;4992371;28;4031;-70
2023/06/16 00:33:52;;;;;;;;;;;;;;;23.38;45.17;101053.94;4987030;28;4180;-70
2023/06/16 00:36:18;;;;;;;;;;;;;;;23.37;45.19;101058.25;4985447;28;4369;-70
2023/06/16 00:38:45;;;;;;;;;;;;;;;23.36;45.34;101056.75;4984268;28;4334;-70
2023/06/16 00:41:13;;;;;;;;;;;;;;;23.37;45.49;101057.50;4983388;28;4330;-69
2023/06/16 00:43:40;;;;;;;;;;;;;;;23.36;45.09;101067.56;4983419;28;4228;-69
2023/06/16 00:46:07;;;;;;;;;;;;;;;23.36;45.20;101053.84;4984842;28;5302;-69
2023/06/16 00:48:33;;;;;;;;;;;;;;;23.36;45.45;101059.63;4999832;28;4456;-69
2023/06/16 00:51:00;;;;;;;;;;;;;;;23.36;45.25;101068.31;4983921;28;4223;-69
2023/06/16 00:53:30;;;;;;;;;;;;;;;23.36;45.30;101067.56;4998148;28;5110;-69
2023/06/16 00:55:58;;;;;;;;;;;;;;;23.36;45.28;101068.31;4984838;28;4177;-69
2023/06/16 00:58:25;;;;;;;;;;;;;;;23.35;45.30;101055.28;5000391;28;4203;-69
2023/06/16 01:00:52;;;;;;;;;;;;;;;23.35;45.13;101055.28;4980739;28;4101;-69
2023/06/16 01:03:21;;;;;;;;;;;;;;;23.34;45.34;101048.03;4983672;28;4481;-69
2023/06/16 01:05:49;;;;;;;;;;;;;;;23.34;45.27;101053.81;4984308;28;4195;-69
2023/06/16 01:08:25;;;;;;;;;;;;;;;23.34;45.25;101053.81;4980667;28;4646;-69
2023/06/16 01:10:55;;;;;;;;;;;;;;;23.33;45.22;101052.31;4979416;28;4144;-69
2023/06/16 01:13:40;;;;;;;;;;;;;;;23.33;45.57;101052.31;4985152;28;4408;-69
2023/06/16 01:16:07;;;;;;;;;;;;;;;23.33;45.37;101054.47;4983448;28;4074;-69
2023/06/16 01:18:33;;;;;;;;;;;;;;;23.33;45.62;101045.78;5001489;28;4296;-69
2023/06/16 01:21:20;;;;;;;;;;;;;;;23.33;45.54;101046.53;4983670;28;4348;-69
2023/06/16 01:23:58;;;;;;;;;;;;;;;23.33;45.41;101034.25;4983439;28;3918;-69
2023/06/16 01:26:26;;;;;;;;;;;;;;;23.33;45.65;101037.88;4999440;28;4139;-69
2023/06/16 01:28:52;;;;;;;;;;;;;;;23.33;45.22;101031.34;4980525;28;4140;-69
2023/06/16 01:31:19;;;;;;;;;;;;;;;23.33;45.53;101034.97;4979530;28;4332;-69
2023/06/16 01:33:45;;;;;;;;;;;;;;;23.32;45.17;101030.63;4982504;28;4208;-69
2023/06/16 01:36:12;;;;;;;;;;;;;;;23.31;45.53;101026.22;5001323;28;4017;-69
2023/06/16 01:38:38;;;;;;;;;;;;;;;23.33;45.27;101034.25;4989087;28;4113;-69
2023/06/16 01:41:05;;;;;;;;;;;;;;;23.32;45.29;101035.63;4983780;28;4156;-69
2023/06/16 01:43:32;;;;;;;;;;;;;;;23.30;45.41;101030.53;4990642;28;4200;-69
2023/06/16 01:45:58;;;;;;;;;;;;;;;23.31;45.43;101034.91;5000059;28;4313;-69
2023/06/16 01:48:24;;;;;;;;;;;;;;;23.31;45.53;101037.78;5000587;28;4249;-69
2023/06/16 01:50:51;;;;;;;;;;;;;;;23.31;45.39;101037.78;4986841;28;4052;-69
2023/06/16 01:53:17;;;;;;;;;;;;;;;23.30;45.39;101035.56;4984922;28;4016;-69
2023/06/16 01:55:47;;;;;;;;;;;;;;;23.30;45.22;101029.81;4984076;28;4134;-69
2023/06/16 01:58:14;;;;;;;;;;;;;;;23.29;45.58;101031.19;4983122;28;5573;-69
2023/06/16 02:00:42;;;;;;;;;;;;;;;23.29;45.71;101037.69;4998734;28;4244;-69
2023/06/16 02:03:13;;;;;;;;;;;;;;;23.29;45.40;101029.03;4998333;28;4334;-69
2023/06/16 02:05:40;;;;;;;;;;;;;;;23.28;45.63;101027.56;4981463;28;4538;-69
2023/06/16 02:08:07;;;;;;;;;;;;;;;23.28;45.81;101027.56;4983312;28;4030;-69
2023/06/16 02:10:33;;;;;;;;;;;;;;;23.28;45.48;101027.56;4996140;28;4265;-69
2023/06/16 02:13:00;;;;;;;;;;;;;;;23.28;45.66;101021.78;4980355;28;4061;-69
2023/06/16 02:15:27;;;;;;;;;;;;;;;23.28;45.47;101033.34;4985473;28;4182;-69
2023/06/16 02:17:57;;;;;;;;;;;;;;;23.28;45.77;101027.56;4995556;28;4178;-69
2023/06/16 02:20:27;;;;;;;;;;;;;;;23.27;45.51;101019.56;4983345;28;4103;-69
2023/06/16 02:22:53;;;;;;;;;;;;;;;23.26;45.51;101018.81;4985234;28;4324;-69
2023/06/16 02:25:21;;;;;;;;;;;;;;;23.27;45.47;101022.44;4985944;28;4043;-69
2023/06/16 02:27:48;;;;;;;;;;;;;;;23.26;45.59;101013.03;4982446;28;4197;-69
2023/06/16 02:30:14;;;;;;;;;;;;;;;23.26;45.67;101013.03;4985014;28;4194;-69
2023/06/16 02:32:41;;;;;;;;;;;;;;;23.26;45.80;101006.53;4985942;28;4059;-70
2023/06/16 02:35:22;;;;;;;;;;;;;;;23.26;45.81;101004.38;4997810;28;7328;-69
2023/06/16 02:37:50;;;;;;;;;;;;;;;23.26;45.49;101001.50;4981111;28;4056;-69
2023/06/16 02:40:17;;;;;;;;;;;;;;;23.25;45.58;101002.91;4982972;28;3920;-69
2023/06/16 02:42:45;;;;;;;;;;;;;;;23.25;45.65;100999.25;4986955;28;4027;-69
2023/06/16 02:45:11;;;;;;;;;;;;;;;23.25;45.64;100993.47;5002896;28;4412;-69
2023/06/16 02:47:41;;;;;;;;;;;;;;;23.24;45.77;100998.53;4988742;28;5014;-69
2023/06/16 02:50:08;;;;;;;;;;;;;;;23.24;45.83;101010.06;4987376;28;4066;-69
2023/06/16 02:52:35;;;;;;;;;;;;;;;23.24;45.63;101004.28;4998692;28;4191;-69
2023/06/16 02:55:03;;;;;;;;;;;;;;;23.24;45.74;101006.44;4986081;28;4195;-69
2023/06/16 02:57:39;;;;;;;;;;;;;;;23.23;45.76;100997.06;5001451;28;4071;-71
2023/06/16 03:00:10;;;;;;;;;;;;;;;23.23;45.91;100997.06;5000560;28;4185;-70
2023/06/16 03:02:56;;;;;;;;;;;;;;;23.23;45.69;101002.81;4999845;28;4040;-70
2023/06/16 03:05:23;;;;;;;;;;;;;;;23.23;45.56;101010.72;4988992;28;3943;-71
2023/06/16 03:07:49;;;;;;;;;;;;;;;23.22;45.66;101004.22;4999550;28;4583;-71
2023/06/16 03:10:16;;;;;;;;;;;;;;;23.23;45.90;100996.28;4995878;28;4369;-71
2023/06/16 03:13:00;;;;;;;;;;;;;;;23.20;45.55;100999.13;5001402;28;4233;-71
2023/06/16 03:15:27;;;;;;;;;;;;;;;23.21;45.75;101000.59;4987695;28;4192;-71
2023/06/16 03:17:54;;;;;;;;;;;;;;;23.21;45.62;101000.59;4998040;28;4276;-71
2023/06/16 03:20:21;;;;;;;;;;;;;;;23.22;45.85;101001.31;4981874;28;4101;-71
2023/06/16 03:22:54;;;;;;;;;;;;;;;23.21;45.59;100994.09;5002405;28;4195;-71
2023/06/16 03:25:21;;;;;;;;;;;;;;;23.20;45.72;100992.59;4985180;28;4475;-70
2023/06/16 03:27:48;;;;;;;;;;;;;;;23.21;45.82;100996.97;4999356;28;4659;-70
2023/06/16 03:30:18;;;;;;;;;;;;;;;23.20;45.83;101004.16;5001178;28;4113;-70
2023/06/16 03:32:54;;;;;;;;;;;;;;;23.21;45.89;101008.53;4955864;28;4134;-70
2023/06/16 03:35:21;;;;;;;;;;;;;;;23.20;45.74;100996.25;5002292;28;4242;-71
2023/06/16 03:37:49;;;;;;;;;;;;;;;23.20;45.95;101010.69;4996740;28;4234;-70
2023/06/16 03:40:17;;;;;;;;;;;;;;;23.20;45.72;101004.16;4981788;28;4189;-70
2023/06/16 03:42:44;;;;;;;;;;;;;;;23.19;45.79;101012.06;5000393;28;4540;-70
2023/06/16 03:45:11;;;;;;;;;;;;;;;23.19;45.73;101002.66;5000053;28;4407;-70
2023/06/16 03:47:38;;;;;;;;;;;;;;;23.19;45.86;101008.44;4988473;28;4134;-70
2023/06/16 03:50:04;;;;;;;;;;;;;;;23.19;45.68;101002.66;4999985;28;4103;-70
2023/06/16 03:52:33;;;;;;;;;;;;;;;23.18;45.68;100996.16;4993882;28;4097;-70
2023/06/16 03:55:01;;;;;;;;;;;;;;;23.19;45.75;101000.53;4999973;28;4154;-71
2023/06/16 03:57:28;;;;;;;;;;;;;;;23.18;45.70;100995.41;4999607;28;4798;-70
2023/06/16 03:59:54;;;;;;;;;;;;;;;23.19;45.71;100997.63;4986887;28;4151;-70
2023/06/16 04:02:20;;;;;;;;;;;;;;;23.18;45.81;101006.94;4985850;28;4070;-70
2023/06/16 04:04:47;;;;;;;;;;;;;;;23.19;45.83;101005.56;4987867;28;4221;-70
2023/06/16 04:07:17;;;;;;;;;;;;;;;23.18;45.77;101012.72;4984382;28;4907;-70
2023/06/16 04:09:45;;;;;;;;;;;;;;;23.17;45.89;101017.03;4995830;28;4067;-70
2023/06/16 04:12:12;;;;;;;;;;;;;;;23.18;45.63;101012.72;4980699;28;5171;-69
2023/06/16 04:14:39;;;;;;;;;;;;;;;23.19;45.62;101026.50;4975720;28;4460;-70
2023/06/16 04:17:07;;;;;;;;;;;;;;;23.18;45.90;101015.63;5004726;28;4125;-70
2023/06/16 04:19:34;;;;;;;;;;;;;;;23.19;45.63;101025.78;4993742;28;4143;-70
2023/06/16 04:22:00;;;;;;;;;;;;;;;23.18;45.72;101018.50;4979819;28;4206;-70
2023/06/16 04:24:36;;;;;;;;;;;;;;;23.16;45.68;101015.56;4961637;28;4025;-70
2023/06/16 04:27:03;;;;;;;;;;;;;;;23.16;45.77;101019.19;4970488;28;4068;-69
2023/06/16 04:29:29;;;;;;;;;;;;;;;23.15;45.85;101014.06;4984564;28;4067;-69
2023/06/16 04:31:59;;;;;;;;;;;;;;;23.15;46.09;101011.91;4975305;28;4110;-69
2023/06/16 04:34:31;;;;;;;;;;;;;;;23.15;45.80;101008.28;4982803;28;4138;-70
2023/06/16 04:37:00;;;;;;;;;;;;;;;23.16;45.75;101015.56;4984249;28;4177;-70
2023/06/16 04:39:32;;;;;;;;;;;;;;;23.15;45.70;101008.28;4976429;28;5443;-69
2023/06/16 04:41:59;;;;;;;;;;;;;;;23.08;46.32;101009.47;4983004;28;4104;-72
2023/06/16 04:44:28;;;;;;;;;;;;;;;22.64;50.06;101009.22;4995283;28;4181;-72
2023/06/16 04:46:56;;;;;;;;;;;;;;;22.43;52.26;101019.22;4967521;28;4147;-68
2023/06/16 04:49:23;;;;;;;;;;;;;;;22.46;52.45;101007.09;4975870;28;4104;-69
2023/06/16 04:51:49;;;;;;;;;;;;;;;22.66;51.99;101006.41;4982823;28;4149;-68
2023/06/16 04:54:18;;;;;;;;;;;;;;;22.81;50.83;101005.53;5004850;28;4100;-68
2023/06/16 04:56:45;;;;;;;;;;;;;;;22.90;50.65;101001.56;5002815;28;4205;-68
2023/06/16 04:59:13;;;;;;;;;;;;;;;22.95;50.37;100996.69;5001457;28;4152;-68
2023/06/16 05:01:39;;;;;;;;;;;;;;;22.97;49.61;100994.59;4984470;28;4145;-67
2023/06/16 05:04:06;;;;;;;;;;;;;;;22.98;49.54;100996.09;4998818;28;4192;-67
2023/06/16 05:06:36;;;;;;;;;;;;;;;22.99;49.48;100994.72;4970772;28;4108;-67
2023/06/16 05:09:03;;;;;;;;;;;;;;;23.00;49.03;100993.31;4998532;28;4968;-67
2023/06/16 05:11:30;;;;;;;;;;;;;;;23.02;48.84;100997.69;4981630;28;4357;-67
2023/06/16 05:13:57;;;;;;;;;;;;;;;23.00;48.70;100993.31;4966535;28;4208;-67
2023/06/16 05:16:24;;;;;;;;;;;;;;;23.01;48.58;100999.84;4979392;28;4220;-66
2023/06/16 05:18:52;;;;;;;;;;;;;;;23.00;48.78;100996.22;4997871;28;4140;-67
2023/06/16 05:21:24;;;;;;;;;;;;;;;23.02;48.35;100991.91;5001302;28;4119;-67
2023/06/16 05:23:53;;;;;;;;;;;;;;;22.98;48.24;100996.09;4980083;28;4185;-67
2023/06/16 05:26:21;;;;;;;;;;;;;;;23.02;48.19;100994.78;4991597;28;5112;-68
2023/06/16 05:28:47;;;;;;;;;;;;;;;22.51;51.07;101002.94;4996861;28;4211;-67
2023/06/16 05:31:15;;;;;;;;;;;;;;;21.33;55.69;100999.44;4981307;28;4342;-65
2023/06/16 05:33:42;;;;;;;;;;;;;;;21.11;56.97;101001.28;5000671;28;4137;-65
2023/06/16 05:36:09;;;;;;;;;;;;;;;21.03;57.76;100992.31;4999018;28;4369;-65
2023/06/16 05:38:36;;;;;;;;;;;;;;;20.81;58.23;100992.75;4996189;28;4554;-65
2023/06/16 05:41:03;;;;;;;;;;;;;;;20.81;58.90;101003.53;4999314;28;4263;-65
2023/06/16 05:43:30;;;;;;;;;;;;;;;20.74;59.50;101005.38;5000433;28;4119;-64
2023/06/16 05:45:57;;;;;;;;;;;;;;;20.66;59.90;101010.72;4983200;28;3963;-64
2023/06/16 05:48:24;;;;;;;;;;;;;;;20.63;59.79;101007.00;4982381;28;4052;-64
2023/06/16 05:50:50;;;;;;;;;;;;;;;20.54;60.37;101004.38;4984111;28;4186;-64
2023/06/16 05:53:16;;;;;;;;;;;;;;;20.40;61.11;101008.03;4984540;28;4039;-64
2023/06/16 05:55:43;;;;;;;;;;;;;;;20.54;60.79;101013.00;4999213;28;4202;-64
2023/06/16 05:58:09;;;;;;;;;;;;;;;20.27;61.69;101008.84;4987350;28;4355;-64
2023/06/16 06:00:36;;;;;;;;;;;;;;;20.22;61.84;101007.88;4998429;28;4208;-64
2023/06/16 06:03:10;;;;;;;;;;;;;;;20.33;61.81;101009.13;4996324;28;5171;-64
2023/06/16 06:05:37;;;;;;;;;;;;;;;20.44;61.35;101008.25;4982473;28;4775;-64
2023/06/16 06:08:05;;;;;;;;;;;;;;;20.05;62.47;101009.22;4996900;28;4148;-64
2023/06/16 06:10:32;;;;;;;;;;;;;;;20.32;61.93;101004.03;4998739;28;4113;-64
2023/06/16 06:13:05;;;;;;;;;;;;;;;20.22;62.15;101004.28;4995708;28;4024;-64
2023/06/16 06:15:35;;;;;;;;;;;;;;;20.17;61.72;101008.34;5003261;28;4059;-63
2023/06/16 06:18:08;;;;;;;;;;;;;;;20.18;61.82;101004.84;5002834;28;4110;-64
2023/06/16 06:20:38;;;;;;;;;;;;;;;20.00;62.62;101007.53;5003968;28;3934;-64
2023/06/16 06:23:05;;;;;;;;;;;;;;;20.61;60.36;101011.94;4986546;28;4108;-67
2023/06/16 06:25:31;;;;;;;;;;;;;;;21.36;57.78;101013.91;4986775;28;4188;-66
2023/06/16 06:27:58;;;;;;;;;;;;;;;21.62;56.59;101006.44;5005197;28;6264;-66
2023/06/16 06:30:25;;;;;;;;;;;;;;;21.73;56.06;101005.50;4999322;28;4307;-66
2023/06/16 06:32:52;;;;;;;;;;;;;;;21.80;55.72;101020.19;5000202;28;4226;-69
2023/06/16 06:35:18;;;;;;;;;;;;;;;21.89;55.16;101016.25;4982233;28;4205;-66
2023/06/16 06:37:45;;;;;;;;;;;;;;;21.92;55.11;101017.81;4980324;28;4263;-67
2023/06/16 06:40:11;;;;;;;;;;;;;;;21.96;55.57;101015.09;5006993;28;4252;-67
2023/06/16 06:42:38;;;;;;;;;;;;;;;21.98;55.26;101020.97;4994338;28;4088;-67
2023/06/16 06:45:22;;;;;;;;;;;;;;;22.00;54.55;101026.06;4973149;28;4909;-67
2023/06/16 06:47:48;;;;;;;;;;;;;;;22.07;54.17;101037.19;4997220;28;4033;-66
2023/06/16 06:50:15;;;;;;;;;;;;;;;22.09;54.38;101034.41;5005268;28;4725;-67
2023/06/16 06:52:41;;;;;;;;;;;;;;;22.11;54.90;101031.59;4990429;28;3976;-67
2023/06/16 06:55:08;;;;;;;;;;;;;;;22.11;54.73;101031.59;4989583;28;4320;-67
2023/06/16 06:57:34;;;;;;;;;;;;;;;22.12;54.14;101041.00;4988242;28;4141;-67
2023/06/16 07:00:01;;;;;;;;;;;;;;;22.17;54.03;101043.41;4983649;28;4157;-67
2023/06/16 07:02:27;;;;;;;;;;;;;;;22.17;53.60;101040.53;4971266;28;3980;-67
2023/06/16 07:04:54;;;;;;;;;;;;;;;22.21;53.77;101039.19;4984926;28;4224;-66
2023/06/16 07:07:20;;;;;;;;;;;;;;;22.21;54.14;101042.09;4993080;28;4111;-67
2023/06/16 07:09:47;;;;;;;;;;;;;;;22.22;54.48;101040.69;4992373;28;4083;-67
2023/06/16 07:12:13;;;;;;;;;;;;;;;22.23;54.86;101042.19;4988076;28;4085;-67
2023/06/16 07:14:40;;;;;;;;;;;;;;;22.22;54.42;101043.59;4993412;28;4665;-67
2023/06/16 07:17:06;;;;;;;;;;;;;;;22.27;53.63;101042.38;4993023;28;4145;-67
2023/06/16 07:19:32;;;;;;;;;;;;;;;22.31;53.43;101042.53;4997437;28;3992;-67
2023/06/16 07:22:00;;;;;;;;;;;;;;;22.35;53.28;101048.47;4991865;28;4157;-67
2023/06/16 07:24:27;;;;;;;;;;;;;;;22.37;53.01;101052.16;4987990;28;4082;-67
2023/06/16 07:26:53;;;;;;;;;;;;;;;22.40;52.89;101049.38;4986631;28;4294;-67
2023/06/16 07:29:20;;;;;;;;;;;;;;;22.40;52.83;101047.22;5000244;28;4193;-67
2023/06/16 07:31:46;;;;;;;;;;;;;;;22.42;52.56;101049.47;4993039;28;4196;-69
2023/06/16 07:34:13;;;;;;;;;;;;;;;22.43;53.11;101048.81;4986238;28;4115;-67
2023/06/16 07:36:39;;;;;;;;;;;;;;;22.43;52.62;101040.16;4991385;28;4123;-67
2023/06/16 07:39:06;;;;;;;;;;;;;;;22.47;52.86;101043.22;4987731;28;4026;-67
2023/06/16 07:41:32;;;;;;;;;;;;;;;22.49;52.87;101046.16;4991017;28;3992;-67
2023/06/16 07:43:59;;;;;;;;;;;;;;;22.51;52.77;101048.38;4983620;28;4344;-67
2023/06/16 07:46:25;;;;;;;;;;;;;;;22.51;52.67;101043.34;4978095;28;4195;-67
2023/06/16 07:48:52;;;;;;;;;;;;;;;22.52;52.06;101044.84;4987584;28;4136;-67
2023/06/16 07:51:20;;;;;;;;;;;;;;;22.53;52.17;101034.78;4987302;28;4140;-67
2023/06/16 07:53:48;;;;;;;;;;;;;;;22.53;51.90;101040.56;4987829;28;4087;-67
2023/06/16 07:56:15;;;;;;;;;;;;;;;22.54;52.13;101036.28;4990748;28;3850;-67
2023/06/16 07:58:41;;;;;;;;;;;;;;;22.56;52.09;101036.38;4986585;28;4266;-67
2023/06/16 08:01:07;;;;;;;;;;;;;;;22.56;52.11;101039.25;4986500;28;4168;-67
2023/06/16 08:03:34;;;;;;;;;;;;;;;22.57;51.59;101043.59;4987530;28;4184;-67
2023/06/16 08:06:03;;;;;;;;;;;;;;;22.57;51.73;101034.94;4971739;28;4889;-67
2023/06/16 08:08:29;;;;;;;;;;;;;;;22.58;51.58;101039.31;4973294;28;5096;-67
2023/06/16 08:10:56;;;;;;;;;;;;;;;22.58;51.62;101039.31;4990006;28;4116;-66
2023/06/16 08:13:22;;;;;;;;;;;;;;;22.59;51.18;101037.91;4989067;28;4305;-67
2023/06/16 08:15:49;;;;;;;;;;;;;;;22.60;51.16;101027.09;4990184;28;4145;-66
2023/06/16 08:18:17;;;;;;;;;;;;;;;22.61;51.09;101037.25;4987653;28;4739;-66
2023/06/16 08:20:47;;;;;;;;;;;;;;;22.62;51.21;101040.88;4988811;28;4165;-67
2023/06/16 08:23:13;;;;;;;;;;;;;;;22.62;51.11;101032.97;4985022;28;5127;-68
2023/06/16 08:25:40;;;;;;;;;;;;;;;22.62;51.03;101046.66;4987446;28;4071;-66
2023/06/16 08:28:07;;;;;;;;;;;;;;;22.61;51.04;101045.94;4986455;28;4017;-67
2023/06/16 08:30:34;;;;;;;;;;;;;;;22.60;51.06;101044.44;4984929;28;4183;-67
2023/06/16 08:33:01;;;;;;;;;;;;;;;22.62;51.34;101041.63;4985670;28;4031;-67
2023/06/16 08:35:28;;;;;;;;;;;;;;;22.61;51.43;101042.28;4987105;28;4142;-68
2023/06/16 08:37:54;;;;;;;;;;;;;;;22.58;51.02;101036.41;4981090;28;4195;-67
2023/06/16 08:40:20;;;;;;;;;;;;;;;22.61;50.99;101043.03;4987955;28;3972;-66
2023/06/16 08:42:47;;;;;;;;;;;;;;;22.67;51.22;101036.75;4986045;28;4134;-66
2023/06/16 08:45:14;;;;;;;;;;;;;;;22.61;51.22;101039.38;4985998;28;4154;-67
2023/06/16 08:47:42;;;;;;;;;;;;;;;22.67;51.13;101043.25;4981776;28;4383;-67
2023/06/16 08:50:09;;;;;;;;;;;;;;;22.47;52.06;101042.44;4983871;28;3978;-65
2023/06/16 08:52:37;;;;;;;;;;;;;;;22.38;53.53;101047.16;4985419;28;4588;-67
2023/06/16 08:55:12;;;;;;;;;;;;;;;22.43;53.06;101051.69;4989592;28;5131;-67
2023/06/16 08:57:50;;;;;;;;;;;;;;;22.55;52.02;101054.31;4980943;28;4593;-67
2023/06/16 09:00:16;;;;;;;;;;;;;;;22.63;51.68;101053.91;4979074;28;4542;-67
2023/06/16 09:02:48;;;;;;;;;;;;;;;22.67;51.22;101059.84;4967334;28;4188;-67
2023/06/16 09:05:17;;;;;;;;;;;;;;;22.69;51.43;101048.38;4985798;28;5327;-67
2023/06/16 09:07:44;;;;;;;;;;;;;;;22.76;51.30;101047.22;4986167;28;4011;-66
2023/06/16 09:10:10;;;;;;;;;;;;;;;22.79;51.42;101055.31;4986100;28;4758;-66
2023/06/16 09:12:37;;;;;;;;;;;;;;;22.75;51.70;101052.25;4984374;28;4459;-64
2023/06/16 09:15:08;;;;;;;;;;;;;;;22.77;51.71;101057.38;4989602;28;4101;-66
2023/06/16 09:17:34;;;;;;;;;;;;;;;22.77;51.31;101042.94;4986545;28;4255;-66
2023/06/16 09:20:01;;;;;;;;;;;;;;;22.81;51.53;101051.75;4987711;28;4335;-66
2023/06/16 09:22:28;;;;;;;;;;;;;;;22.79;51.50;101043.75;4986470;28;4185;-66
2023/06/16 09:25:01;;;;;;;;;;;;;;;22.81;51.48;101048.84;4983763;28;4852;-66
2023/06/16 09:27:41;;;;;;;;;;;;;;;22.76;51.40;101050.09;4985998;28;4028;-66
2023/06/16 09:30:08;;;;;;;;;;;;;;;22.63;51.60;101059.69;4983644;28;4140;-66
2023/06/16 09:32:38;;;;;;;;;;;;;;;22.72;51.92;101049.94;4986722;28;4284;-66
2023/06/16 09:35:17;;;;;;;;;;;;;;;22.74;51.14;101053.63;4986289;28;4034;-66
2023/06/16 09:37:43;;;;;;;;;;;;;;;22.78;51.06;101050.19;4986918;28;4081;-66
2023/06/16 09:40:10;;;;;;;;;;;;;;;22.78;51.30;101050.91;4987378;28;3918;-66
2023/06/16 09:42:37;;;;;;;;;;;;;;;22.80;51.53;101062.56;4983727;28;3979;-66
2023/06/16 09:45:12;;;;;;;;;;;;;;;22.80;51.14;101062.56;4986334;28;4205;-66
2023/06/16 09:47:43;;;;;;;;;;;;;;;22.79;51.52;101061.09;4980278;28;4187;-66
2023/06/16 09:50:13;;;;;;;;;;;;;;;22.78;51.40;101061.72;4990610;28;4152;-66
2023/06/16 09:52:43;;;;;;;;;;;;;;;22.80;51.43;101068.31;4984579;28;4048;-66
2023/06/16 09:55:11;;;;;;;;;;;;;;;22.78;51.43;101064.63;4983574;28;4188;-66
2023/06/16 09:57:38;;;;;;;;;;;;;;;22.82;51.14;101064.78;4987569;28;4170;-66
2023/06/16 10:00:10;;;;;;;;;;;;;;;22.83;50.97;101056.88;4982322;28;4264;-66
2023/06/16 10:02:43;;;;;;;;;;;;;;;22.83;50.83;101060.47;4985470;28;4124;-66
2023/06/16 10:05:10;;;;;;;;;;;;;;;22.84;51.20;101058.34;4981100;28;4616;-66
2023/06/16 10:07:37;;;;;;;;;;;;;;;22.84;51.08;101056.22;4987874;28;4093;-66
2023/06/16 10:10:04;;;;;;;;;;;;;;;22.84;51.08;101059.09;4984637;28;4190;-65
2023/06/16 10:12:32;;;;;;;;;;;;;;;22.69;51.29;101054.88;4986786;28;4531;-66
2023/06/16 10:14:58;;;;;;;;;;;;;;;22.64;51.93;101053.25;4992614;28;4280;-66
2023/06/16 10:17:26;;;;;;;;;;;;;;;22.77;51.57;101057.38;4989514;28;4057;-66
2023/06/16 10:19:52;;;;;;;;;;;;;;;22.81;51.50;101057.50;5000341;28;5158;-66
2023/06/16 10:22:19;;;;;;;;;;;;;;;22.84;51.42;101056.22;4988792;28;4381;-66
2023/06/16 10:24:46;;;;;;;;;;;;;;;22.82;51.13;101052.50;4999521;28;4131;-66
2023/06/16 10:27:13;;;;;;;;;;;;;;;22.83;51.74;101048.19;4985391;28;4078;-66
2023/06/16 10:29:39;;;;;;;;;;;;;;;22.82;51.84;101056.13;4990569;28;4168;-66
2023/06/16 10:32:06;;;;;;;;;;;;;;;22.84;52.20;101061.22;4994488;28;4307;-65
2023/06/16 10:34:46;;;;;;;;;;;;;;;22.83;51.38;101051.81;4984292;28;4035;-67
2023/06/16 10:37:16;;;;;;;;;;;;;;;22.81;51.49;101063.28;4984805;28;4113;-67
2023/06/16 10:39:43;;;;;;;;;;;;;;;22.84;52.03;101056.22;4989395;28;4142;-66
2023/06/16 10:42:12;;;;;;;;;;;;;;;22.84;52.68;101059.09;4986867;28;4011;-66
2023/06/16 10:44:40;;;;;;;;;;;;;;;22.83;53.02;101048.94;4983214;28;4194;-66
2023/06/16 10:47:09;;;;;;;;;;;;;;;22.84;53.10;101056.22;4992931;28;4147;-67
2023/06/16 10:49:52;;;;;;;;;;;;;;;22.84;52.55;101053.31;4985779;28;4165;-66
2023/06/16 10:52:32;;;;;;;;;;;;;;;22.82;53.05;101050.34;4984352;28;4157;-66
2023/06/16 10:54:59;;;;;;;;;;;;;;;22.85;52.89;101056.94;4985331;28;4125;-66
2023/06/16 10:57:25;;;;;;;;;;;;;;;22.84;52.94;101052.56;4984298;28;4133;-67
2023/06/16 11:00:10;;;;;;;;;;;;;;;22.84;52.53;101050.44;4987715;28;4322;-66
2023/06/16 11:02:38;;;;;;;;;;;;;;;22.86;52.50;101061.31;4988000;28;4141;-66
2023/06/16 11:05:07;;;;;;;;;;;;;;;22.87;52.81;101049.09;4987762;28;3982;-64
2023/06/16 11:07:43;;;;;;;;;;;;;;;22.86;52.87;101062.06;4989510;28;5193;-73
2023/06/16 11:10:10;;;;;;;;;;;;;;;22.84;52.86;101056.22;4987710;28;4338;-72
2023/06/16 11:12:37;;;;;;;;;;;;;;;22.84;52.96;101059.09;4985432;28;3958;-72
2023/06/16 11:15:03;;;;;;;;;;;;;;;22.84;52.78;101061.97;4984377;28;4133;-72
2023/06/16 11:17:31;;;;;;;;;;;;;;;22.85;52.96;101065.59;4985989;28;4105;-72
2023/06/16 11:19:58;;;;;;;;;;;;;;;22.85;53.23;101056.94;4984888;28;4438;-71
2023/06/16 11:22:35;;;;;;;;;;;;;;;22.86;53.03;101053.41;4997280;28;4005;-72
2023/06/16 11:25:03;;;;;;;;;;;;;;;22.85;52.88;101057.69;4993367;28;4026;-71
2023/06/16 11:27:30;;;;;;;;;;;;;;;22.85;53.10;101051.16;4987049;28;4217;-72
2023/06/16 11:29:57;;;;;;;;;;;;;;;22.85;52.86;101057.69;4990466;28;4160;-72
2023/06/16 11:32:24;;;;;;;;;;;;;;;22.85;53.12;101045.41;4989583;28;4174;-72
2023/06/16 11:34:52;;;;;;;;;;;;;;;22.85;52.69;101054.78;4989262;28;4341;-73
2023/06/16 11:37:19;;;;;;;;;;;;;;;22.83;52.87;101048.94;5000315;28;4183;-72
2023/06/16 11:39:45;;;;;;;;;;;;;;;22.86;52.86;101053.41;4987396;28;4222;-73
2023/06/16 11:42:15;;;;;;;;;;;;;;;22.87;52.83;101048.38;5000850;28;4102;-73
2023/06/16 11:44:44;;;;;;;;;;;;;;;22.89;53.06;101048.44;4989550;28;4169;-73
2023/06/16 11:47:10;;;;;;;;;;;;;;;22.90;53.06;101053.53;5003906;28;4194;-70
2023/06/16 11:49:37;;;;;;;;;;;;;;;22.90;52.73;101056.44;5004063;28;4054;-71
2023/06/16 11:52:04;;;;;;;;;;;;;;;22.84;52.20;101047.53;4987450;28;4538;-70
2023/06/16 11:54:31;;;;;;;;;;;;;;;22.82;52.39;101050.34;4987912;28;4088;-70
2023/06/16 11:56:58;;;;;;;;;;;;;;;22.82;52.53;101053.25;4985147;28;4090;-72
2023/06/16 11:59:28;;;;;;;;;;;;;;;22.82;52.69;101046.72;4987233;28;4194;-69
2023/06/16 12:01:56;;;;;;;;;;;;;;;22.78;52.74;101053.06;4996471;28;4216;-71
2023/06/16 12:04:22;;;;;;;;;;;;;;;22.66;52.72;101061.25;4983005;28;4110;-68
2023/06/16 12:06:48;;;;;;;;;;;;;;;22.53;52.61;101068.69;4991594;28;4113;-67
2023/06/16 12:09:19;;;;;;;;;;;;;;;22.30;52.61;101053.31;4989467;28;4044;-71
2023/06/16 12:11:46;;;;;;;;;;;;;;;22.31;52.97;101054.06;4994198;28;4199;-70
2023/06/16 12:14:20;;;;;;;;;;;;;;;22.47;52.38;101048.97;4984762;28;4103;-70
2023/06/16 12:16:47;;;;;;;;;;;;;;;22.20;53.52;101055.03;4988945;28;3958;-73
2023/06/16 12:19:20;;;;;;;;;;;;;;;21.48;55.47;101060.56;4986469;28;4100;-69
2023/06/16 12:21:51;;;;;;;;;;;;;;;21.00;56.47;101048.28;4988218;28;4037;-67
2023/06/16 12:24:21;;;;;;;;;;;;;;;21.20;56.19;101048.50;4984182;28;4185;-68
2023/06/16 12:26:48;;;;;;;;;;;;;;;21.16;55.96;101054.78;4990020;28;4237;-70
2023/06/16 12:29:15;;;;;;;;;;;;;;;21.32;56.50;101061.28;4987508;28;4160;-69
2023/06/16 12:32:08;;;;;;;;;;;;;;;21.34;56.31;101052.75;4992157;28;4170;-69
2023/06/16 12:34:37;;;;;;;;;;;;;;;21.47;56.42;101059.09;4983076;28;4075;-69
2023/06/16 12:37:06;;;;;;;;;;;;;;;20.91;58.05;101056.56;4988373;28;3961;-69
2023/06/16 12:39:33;;;;;;;;;;;;;;;21.49;56.91;101050.56;4988796;28;3901;-69
2023/06/16 12:42:00;;;;;;;;;;;;;;;21.73;55.92;101045.84;4992813;28;4106;-69
2023/06/16 12:44:43;;;;;;;;;;;;;;;21.68;56.26;101058.59;4986201;28;3952;-68
2023/06/16 12:47:09;;;;;;;;;;;;;;;21.60;56.64;101054.63;4992308;28;4007;-68
2023/06/16 12:49:36;;;;;;;;;;;;;;;21.25;57.71;101053.78;4987121;28;4162;-69
2023/06/16 12:52:03;;;;;;;;;;;;;;;21.38;57.58;101055.09;4988068;28;3890;-69
2023/06/16 12:54:29;;;;;;;;;;;;;;;21.15;57.99;101044.69;4987523;28;4071;-69